sensor_id;sensor_type;location;lat;lon;timestamp;pressure;altitude;pressure_sealevel;temperature
69552;BMP280;58993;45.320;11.864;2022-07-29T00:02:23;101709.35;;;30.46
69552;BMP280;58993;45.320;11.864;2022-07-29T00:04:48;101711.04;;;30.45
69552;BMP280;58993;45.320;11.864;2022-07-29T00:07:14;101710.94;;;30.46
69552;BMP280;58993;45.320;11.864;2022-07-29T00:09:39;101707.80;;;30.44
69552;BMP280;58993;45.320;11.864;2022-07-29T00:12:05;101710.30;;;30.45
69552;BMP280;58993;45.320;11.864;2022-07-29T00:14:31;101702.19;;;30.42
69552;BMP280;58993;45.320;11.864;2022-07-29T00:16:56;101696.79;;;30.42
69552;BMP280;58993;45.320;11.864;2022-07-29T00:19:22;101691.86;;;30.40
69552;BMP280;58993;45.320;11.864;2022-07-29T00:21:47;101690.90;;;30.40
69552;BMP280;58993;45.320;11.864;2022-07-29T00:24:13;101691.92;;;30.40
69552;BMP280;58993;45.320;11.864;2022-07-29T00:26:38;101691.78;;;30.40
69552;BMP280;58993;45.320;11.864;2022-07-29T00:29:04;101696.23;;;30.38
69552;BMP280;58993;45.320;11.864;2022-07-29T00:31:30;101696.64;;;30.39
69552;BMP280;58993;45.320;11.864;2022-07-29T00:33:56;101692.72;;;30.38
69552;BMP280;58993;45.320;11.864;2022-07-29T00:36:22;101691.66;;;30.39
69552;BMP280;58993;45.320;11.864;2022-07-29T00:38:49;101685.13;;;30.36
69552;BMP280;58993;45.320;11.864;2022-07-29T00:41:15;101686.85;;;30.36
69552;BMP280;58993;45.320;11.864;2022-07-29T00:43:41;101685.17;;;30.36
69552;BMP280;58993;45.320;11.864;2022-07-29T00:46:07;101680.68;;;30.35
69552;BMP280;58993;45.320;11.864;2022-07-29T00:48:32;101682.58;;;30.35
69552;BMP280;58993;45.320;11.864;2022-07-29T00:50:59;101676.58;;;30.32
69552;BMP280;58993;45.320;11.864;2022-07-29T00:53:26;101669.36;;;30.34
69552;BMP280;58993;45.320;11.864;2022-07-29T00:55:56;101661.55;;;30.34
69552;BMP280;58993;45.320;11.864;2022-07-29T00:58:23;101655.05;;;30.32
69552;BMP280;58993;45.320;11.864;2022-07-29T01:00:49;101648.31;;;30.33
69552;BMP280;58993;45.320;11.864;2022-07-29T01:03:14;101644.86;;;30.32
69552;BMP280;58993;45.320;11.864;2022-07-29T01:05:41;101641.35;;;30.29
69552;BMP280;58993;45.320;11.864;2022-07-29T01:08:08;101640.23;;;30.28
69552;BMP280;58993;45.320;11.864;2022-07-29T01:10:38;101639.30;;;30.28
69552;BMP280;58993;45.320;11.864;2022-07-29T01:13:04;101627.61;;;30.26
69552;BMP280;58993;45.320;11.864;2022-07-29T01:15:31;101628.45;;;30.28
69552;BMP280;58993;45.320;11.864;2022-07-29T01:18:07;101620.58;;;30.26
69552;BMP280;58993;45.320;11.864;2022-07-29T01:20:51;101621.88;;;30.25
69552;BMP280;58993;45.320;11.864;2022-07-29T01:31:58;101611.04;;;30.26
69552;BMP280;58993;45.320;11.864;2022-07-29T01:34:30;101612.86;;;30.25
69552;BMP280;58993;45.320;11.864;2022-07-29T01:37:10;101613.30;;;30.23
69552;BMP280;58993;45.320;11.864;2022-07-29T01:39:39;101612.77;;;30.24
69552;BMP280;58993;45.320;11.864;2022-07-29T01:45:26;101606.30;;;30.25
69552;BMP280;58993;45.320;11.864;2022-07-29T01:48:02;101604.48;;;30.23
69552;BMP280;58993;45.320;11.864;2022-07-29T01:50:37;101604.23;;;30.23
69552;BMP280;58993;45.320;11.864;2022-07-29T01:53:08;101604.45;;;30.23
69552;BMP280;58993;45.320;11.864;2022-07-29T01:55:38;101604.80;;;30.23
69552;BMP280;58993;45.320;11.864;2022-07-29T01:58:05;101601.77;;;30.22
69552;BMP280;58993;45.320;11.864;2022-07-29T02:00:33;101601.94;;;30.22
69552;BMP280;58993;45.320;11.864;2022-07-29T02:03:03;101603.36;;;30.20
69552;BMP280;58993;45.320;11.864;2022-07-29T02:05:31;101600.35;;;30.20
69552;BMP280;58993;45.320;11.864;2022-07-29T02:07:58;101594.92;;;30.20
69552;BMP280;58993;45.320;11.864;2022-07-29T02:10:27;101589.61;;;30.20
69552;BMP280;58993;45.320;11.864;2022-07-29T02:12:56;101589.39;;;30.19
69552;BMP280;58993;45.320;11.864;2022-07-29T02:15:28;101588.95;;;30.20
69552;BMP280;58993;45.320;11.864;2022-07-29T02:17:57;101593.05;;;30.21
69552;BMP280;58993;45.320;11.864;2022-07-29T02:20:24;101589.95;;;30.20
69552;BMP280;58993;45.320;11.864;2022-07-29T02:22:52;101588.98;;;30.19
69552;BMP280;58993;45.320;11.864;2022-07-29T02:25:19;101586.86;;;30.20
69552;BMP280;58993;45.320;11.864;2022-07-29T02:27:46;101590.16;;;30.21
69552;BMP280;58993;45.320;11.864;2022-07-29T02:30:12;101594.14;;;30.18
69552;BMP280;58993;45.320;11.864;2022-07-29T02:32:39;101601.05;;;30.19
69552;BMP280;58993;45.320;11.864;2022-07-29T02:35:07;101604.42;;;30.17
69552;BMP280;58993;45.320;11.864;2022-07-29T02:37:35;101603.64;;;30.16
69552;BMP280;58993;45.320;11.864;2022-07-29T02:40:01;101604.46;;;30.16
69552;BMP280;58993;45.320;11.864;2022-07-29T02:42:28;101604.34;;;30.13
69552;BMP280;58993;45.320;11.864;2022-07-29T02:44:54;101602.58;;;30.13
69552;BMP280;58993;45.320;11.864;2022-07-29T02:47:52;101606.22;;;30.14
69552;BMP280;58993;45.320;11.864;2022-07-29T02:50:42;101609.93;;;30.14
69552;BMP280;58993;45.320;11.864;2022-07-29T02:53:13;101611.05;;;30.11
69552;BMP280;58993;45.320;11.864;2022-07-29T02:55:49;101615.27;;;30.11
69552;BMP280;58993;45.320;11.864;2022-07-29T03:00:47;101616.50;;;30.08
69552;BMP280;58993;45.320;11.864;2022-07-29T03:03:16;101613.27;;;30.08
69552;BMP280;58993;45.320;11.864;2022-07-29T03:05:42;101612.43;;;30.09
69552;BMP280;58993;45.320;11.864;2022-07-29T03:08:11;101613.73;;;30.07
69552;BMP280;58993;45.320;11.864;2022-07-29T03:10:39;101614.74;;;30.08
69552;BMP280;58993;45.320;11.864;2022-07-29T03:13:07;101618.08;;;30.08
69552;BMP280;58993;45.320;11.864;2022-07-29T03:15:34;101621.83;;;30.04
69552;BMP280;58993;45.320;11.864;2022-07-29T03:18:01;101631.80;;;30.07
69552;BMP280;58993;45.320;11.864;2022-07-29T03:20:27;101636.61;;;30.06
69552;BMP280;58993;45.320;11.864;2022-07-29T03:22:53;101640.27;;;30.04
69552;BMP280;58993;45.320;11.864;2022-07-29T03:25:19;101640.23;;;30.03
69552;BMP280;58993;45.320;11.864;2022-07-29T03:27:46;101641.33;;;30.05
69552;BMP280;58993;45.320;11.864;2022-07-29T03:30:13;101640.98;;;30.05
69552;BMP280;58993;45.320;11.864;2022-07-29T03:32:39;101644.73;;;30.04
69552;BMP280;58993;45.320;11.864;2022-07-29T03:35:06;101643.80;;;30.03
69552;BMP280;58993;45.320;11.864;2022-07-29T03:37:32;101645.73;;;30.03
69552;BMP280;58993;45.320;11.864;2022-07-29T03:40:00;101643.40;;;30.01
69552;BMP280;58993;45.320;11.864;2022-07-29T03:42:31;101642.59;;;30.04
69552;BMP280;58993;45.320;11.864;2022-07-29T03:44:58;101645.22;;;30.04
69552;BMP280;58993;45.320;11.864;2022-07-29T03:47:27;101651.58;;;30.02
69552;BMP280;58993;45.320;11.864;2022-07-29T03:49:59;101654.74;;;30.04
69552;BMP280;58993;45.320;11.864;2022-07-29T03:52:25;101649.45;;;30.02
69552;BMP280;58993;45.320;11.864;2022-07-29T03:54:51;101649.38;;;30.04
69552;BMP280;58993;45.320;11.864;2022-07-29T03:57:18;101647.39;;;30.03
69552;BMP280;58993;45.320;11.864;2022-07-29T03:59:46;101647.09;;;30.02
69552;BMP280;58993;45.320;11.864;2022-07-29T04:02:12;101652.73;;;30.04
69552;BMP280;58993;45.320;11.864;2022-07-29T04:04:38;101648.31;;;30.05
69552;BMP280;58993;45.320;11.864;2022-07-29T04:07:04;101647.34;;;30.06
69552;BMP280;58993;45.320;11.864;2022-07-29T04:09:30;101647.73;;;30.07
69552;BMP280;58993;45.320;11.864;2022-07-29T04:11:55;101647.84;;;30.06
69552;BMP280;58993;45.320;11.864;2022-07-29T04:14:21;101653.87;;;30.06
69552;BMP280;58993;45.320;11.864;2022-07-29T04:16:47;101656.14;;;30.07
69552;BMP280;58993;45.320;11.864;2022-07-29T04:19:12;101657.48;;;30.05
69552;BMP280;58993;45.320;11.864;2022-07-29T04:21:41;101661.66;;;30.06
69552;BMP280;58993;45.320;11.864;2022-07-29T04:24:07;101661.78;;;30.05
69552;BMP280;58993;45.320;11.864;2022-07-29T04:26:33;101661.09;;;30.03
69552;BMP280;58993;45.320;11.864;2022-07-29T04:29:00;101666.16;;;30.02
69552;BMP280;58993;45.320;11.864;2022-07-29T04:31:26;101667.58;;;29.98
69552;BMP280;58993;45.320;11.864;2022-07-29T04:33:51;101675.36;;;29.96
69552;BMP280;58993;45.320;11.864;2022-07-29T04:36:17;101671.35;;;29.94
69552;BMP280;58993;45.320;11.864;2022-07-29T04:38:43;101671.48;;;29.96
69552;BMP280;58993;45.320;11.864;2022-07-29T04:41:08;101673.21;;;29.94
69552;BMP280;58993;45.320;11.864;2022-07-29T04:43:35;101672.63;;;29.95
69552;BMP280;58993;45.320;11.864;2022-07-29T04:46:01;101674.73;;;29.95
69552;BMP280;58993;45.320;11.864;2022-07-29T04:48:27;101681.13;;;29.95
69552;BMP280;58993;45.320;11.864;2022-07-29T04:50:52;101682.06;;;29.92
69552;BMP280;58993;45.320;11.864;2022-07-29T04:53:18;101689.39;;;29.91
69552;BMP280;58993;45.320;11.864;2022-07-29T04:55:43;101688.45;;;29.87
69552;BMP280;58993;45.320;11.864;2022-07-29T04:58:10;101689.02;;;29.84
69552;BMP280;58993;45.320;11.864;2022-07-29T05:00:35;101689.63;;;29.83
69552;BMP280;58993;45.320;11.864;2022-07-29T05:03:01;101685.52;;;29.77
69552;BMP280;58993;45.320;11.864;2022-07-29T05:05:29;101687.66;;;29.73
69552;BMP280;58993;45.320;11.864;2022-07-29T05:07:55;101689.83;;;29.61
69552;BMP280;58993;45.320;11.864;2022-07-29T05:10:21;101695.21;;;29.55
69552;BMP280;58993;45.320;11.864;2022-07-29T05:12:49;101698.60;;;29.50
69552;BMP280;58993;45.320;11.864;2022-07-29T05:15:15;101697.11;;;29.45
69552;BMP280;58993;45.320;11.864;2022-07-29T05:17:41;101697.84;;;29.41
69552;BMP280;58993;45.320;11.864;2022-07-29T05:20:08;101700.40;;;29.38
69552;BMP280;58993;45.320;11.864;2022-07-29T05:22:33;101697.96;;;29.35
69552;BMP280;58993;45.320;11.864;2022-07-29T05:24:59;101699.90;;;29.34
69552;BMP280;58993;45.320;11.864;2022-07-29T05:27:24;101698.72;;;29.30
69552;BMP280;58993;45.320;11.864;2022-07-29T05:29:50;101701.02;;;29.27
69552;BMP280;58993;45.320;11.864;2022-07-29T05:32:15;101703.38;;;29.24
69552;BMP280;58993;45.320;11.864;2022-07-29T05:34:41;101703.20;;;29.23
69552;BMP280;58993;45.320;11.864;2022-07-29T05:37:07;101708.05;;;29.21
69552;BMP280;58993;45.320;11.864;2022-07-29T05:39:32;101711.69;;;29.20
69552;BMP280;58993;45.320;11.864;2022-07-29T05:41:58;101713.35;;;29.21
69552;BMP280;58993;45.320;11.864;2022-07-29T05:44:23;101715.40;;;29.22
69552;BMP280;58993;45.320;11.864;2022-07-29T05:46:49;101714.70;;;29.23
69552;BMP280;58993;45.320;11.864;2022-07-29T05:49:14;101716.66;;;29.24
69552;BMP280;58993;45.320;11.864;2022-07-29T05:51:40;101717.98;;;29.27
69552;BMP280;58993;45.320;11.864;2022-07-29T05:54:06;101718.65;;;29.27
69552;BMP280;58993;45.320;11.864;2022-07-29T05:56:31;101720.28;;;29.31
69552;BMP280;58993;45.320;11.864;2022-07-29T05:58:57;101723.38;;;29.30
69552;BMP280;58993;45.320;11.864;2022-07-29T06:01:22;101726.70;;;29.33
69552;BMP280;58993;45.320;11.864;2022-07-29T06:03:48;101728.30;;;29.36
69552;BMP280;58993;45.320;11.864;2022-07-29T06:06:13;101728.58;;;29.35
69552;BMP280;58993;45.320;11.864;2022-07-29T06:08:39;101728.04;;;29.37
69552;BMP280;58993;45.320;11.864;2022-07-29T06:11:05;101730.67;;;29.37
69552;BMP280;58993;45.320;11.864;2022-07-29T06:13:31;101737.96;;;29.40
69552;BMP280;58993;45.320;11.864;2022-07-29T06:15:57;101737.38;;;29.40
69552;BMP280;58993;45.320;11.864;2022-07-29T06:18:22;101736.21;;;29.42
69552;BMP280;58993;45.320;11.864;2022-07-29T06:20:52;101730.86;;;29.43
69552;BMP280;58993;45.320;11.864;2022-07-29T06:23:19;101729.90;;;29.42
69552;BMP280;58993;45.320;11.864;2022-07-29T06:25:46;101727.21;;;29.40
69552;BMP280;58993;45.320;11.864;2022-07-29T06:28:11;101725.94;;;29.44
69552;BMP280;58993;45.320;11.864;2022-07-29T06:30:38;101731.34;;;29.50
69552;BMP280;58993;45.320;11.864;2022-07-29T06:33:03;101733.27;;;29.54
69552;BMP280;58993;45.320;11.864;2022-07-29T06:35:29;101732.92;;;29.52
69552;BMP280;58993;45.320;11.864;2022-07-29T06:37:55;101740.26;;;29.56
69552;BMP280;58993;45.320;11.864;2022-07-29T06:40:20;101740.26;;;29.58
69552;BMP280;58993;45.320;11.864;2022-07-29T06:43:04;101741.98;;;29.60
69552;BMP280;58993;45.320;11.864;2022-07-29T06:45:33;101740.84;;;29.59
69552;BMP280;58993;45.320;11.864;2022-07-29T06:47:59;101741.06;;;29.61
69552;BMP280;58993;45.320;11.864;2022-07-29T06:50:24;101745.23;;;29.62
69552;BMP280;58993;45.320;11.864;2022-07-29T06:52:50;101745.58;;;29.61
69552;BMP280;58993;45.320;11.864;2022-07-29T06:55:15;101744.71;;;29.55
69552;BMP280;58993;45.320;11.864;2022-07-29T06:57:41;101743.85;;;29.57
69552;BMP280;58993;45.320;11.864;2022-07-29T07:00:07;101739.52;;;29.59
69552;BMP280;58993;45.320;11.864;2022-07-29T07:02:33;101734.26;;;29.59
69552;BMP280;58993;45.320;11.864;2022-07-29T07:04:58;101730.48;;;29.60
69552;BMP280;58993;45.320;11.864;2022-07-29T07:07:24;101725.54;;;29.61
69552;BMP280;58993;45.320;11.864;2022-07-29T07:09:50;101727.83;;;29.60
69552;BMP280;58993;45.320;11.864;2022-07-29T07:12:15;101728.67;;;29.59
69552;BMP280;58993;45.320;11.864;2022-07-29T07:14:41;101728.69;;;29.59
69552;BMP280;58993;45.320;11.864;2022-07-29T07:17:06;101724.99;;;29.61
69552;BMP280;58993;45.320;11.864;2022-07-29T07:19:32;101725.83;;;29.61
69552;BMP280;58993;45.320;11.864;2022-07-29T07:21:58;101727.12;;;29.66
69552;BMP280;58993;45.320;11.864;2022-07-29T07:24:23;101731.80;;;29.71
69552;BMP280;58993;45.320;11.864;2022-07-29T07:26:49;101736.90;;;29.71
69552;BMP280;58993;45.320;11.864;2022-07-29T07:29:14;101731.88;;;29.71
69552;BMP280;58993;45.320;11.864;2022-07-29T07:31:40;101728.72;;;29.70
69552;BMP280;58993;45.320;11.864;2022-07-29T07:34:05;101727.11;;;29.74
69552;BMP280;58993;45.320;11.864;2022-07-29T07:36:31;101721.69;;;29.76
69552;BMP280;58993;45.320;11.864;2022-07-29T07:38:56;101722.71;;;29.79
69552;BMP280;58993;45.320;11.864;2022-07-29T07:41:22;101721.58;;;29.80
69552;BMP280;58993;45.320;11.864;2022-07-29T07:43:48;101718.53;;;29.75
69552;BMP280;58993;45.320;11.864;2022-07-29T07:46:14;101714.65;;;29.73
69552;BMP280;58993;45.320;11.864;2022-07-29T07:48:40;101716.29;;;29.76
69552;BMP280;58993;45.320;11.864;2022-07-29T07:51:06;101715.33;;;29.74
69552;BMP280;58993;45.320;11.864;2022-07-29T07:53:34;101720.05;;;29.78
69552;BMP280;58993;45.320;11.864;2022-07-29T07:55:59;101721.70;;;29.76
69552;BMP280;58993;45.320;11.864;2022-07-29T07:58:25;101723.48;;;29.79
69552;BMP280;58993;45.320;11.864;2022-07-29T08:00:50;101721.48;;;29.79
69552;BMP280;58993;45.320;11.864;2022-07-29T08:03:16;101722.60;;;29.79
69552;BMP280;58993;45.320;11.864;2022-07-29T08:05:41;101723.67;;;29.82
69552;BMP280;58993;45.320;11.864;2022-07-29T08:08:07;101729.77;;;29.83
69552;BMP280;58993;45.320;11.864;2022-07-29T08:10:33;101732.87;;;29.86
69552;BMP280;58993;45.320;11.864;2022-07-29T08:13:21;101733.95;;;29.88
69552;BMP280;58993;45.320;11.864;2022-07-29T08:15:48;101741.62;;;29.85
69552;BMP280;58993;45.320;11.864;2022-07-29T08:18:23;101750.04;;;29.87
69552;BMP280;58993;45.320;11.864;2022-07-29T08:20:50;101750.50;;;29.91
69552;BMP280;58993;45.320;11.864;2022-07-29T08:23:15;101753.81;;;29.91
69552;BMP280;58993;45.320;11.864;2022-07-29T08:25:41;101753.17;;;29.90
69552;BMP280;58993;45.320;11.864;2022-07-29T08:28:07;101746.59;;;29.93
69552;BMP280;58993;45.320;11.864;2022-07-29T08:30:33;101742.77;;;29.93
69552;BMP280;58993;45.320;11.864;2022-07-29T08:32:59;101740.52;;;29.94
69552;BMP280;58993;45.320;11.864;2022-07-29T08:35:25;101743.33;;;29.97
69552;BMP280;58993;45.320;11.864;2022-07-29T08:37:51;101741.03;;;29.96
69552;BMP280;58993;45.320;11.864;2022-07-29T08:40:18;101735.84;;;29.95
69552;BMP280;58993;45.320;11.864;2022-07-29T08:42:45;101732.77;;;29.95
69552;BMP280;58993;45.320;11.864;2022-07-29T08:45:11;101726.73;;;29.96
69552;BMP280;58993;45.320;11.864;2022-07-29T08:47:38;101723.55;;;29.98
69552;BMP280;58993;45.320;11.864;2022-07-29T08:50:08;101721.46;;;29.99
69552;BMP280;58993;45.320;11.864;2022-07-29T08:52:40;101717.38;;;29.99
69552;BMP280;58993;45.320;11.864;2022-07-29T08:55:07;101715.06;;;30.00
69552;BMP280;58993;45.320;11.864;2022-07-29T08:57:33;101718.44;;;30.01
69552;BMP280;58993;45.320;11.864;2022-07-29T09:00:01;101717.04;;;30.02
69552;BMP280;58993;45.320;11.864;2022-07-29T09:02:29;101719.38;;;30.05
69552;BMP280;58993;45.320;11.864;2022-07-29T09:05:00;101719.85;;;30.06
69552;BMP280;58993;45.320;11.864;2022-07-29T09:07:27;101715.40;;;30.04
69552;BMP280;58993;45.320;11.864;2022-07-29T09:09:52;101714.97;;;30.03
69552;BMP280;58993;45.320;11.864;2022-07-29T09:12:18;101715.11;;;30.03
69552;BMP280;58993;45.320;11.864;2022-07-29T09:14:44;101712.84;;;30.05
69552;BMP280;58993;45.320;11.864;2022-07-29T09:17:09;101715.69;;;30.07
69552;BMP280;58993;45.320;11.864;2022-07-29T09:19:36;101710.73;;;30.06
69552;BMP280;58993;45.320;11.864;2022-07-29T09:22:04;101709.14;;;30.05
69552;BMP280;58993;45.320;11.864;2022-07-29T09:26:59;101705.56;;;30.11
69552;BMP280;58993;45.320;11.864;2022-07-29T09:29:25;101704.04;;;30.14
69552;BMP280;58993;45.320;11.864;2022-07-29T09:31:53;101697.16;;;30.16
69552;BMP280;58993;45.320;11.864;2022-07-29T09:34:27;101690.40;;;30.17
69552;BMP280;58993;45.320;11.864;2022-07-29T09:36:54;101686.00;;;30.17
69552;BMP280;58993;45.320;11.864;2022-07-29T09:41:58;101684.63;;;30.18
69552;BMP280;58993;45.320;11.864;2022-07-29T09:44:24;101685.16;;;30.20
69552;BMP280;58993;45.320;11.864;2022-07-29T09:46:58;101690.63;;;30.19
69552;BMP280;58993;45.320;11.864;2022-07-29T09:49:34;101693.83;;;30.23
69552;BMP280;58993;45.320;11.864;2022-07-29T09:52:08;101692.81;;;30.21
69552;BMP280;58993;45.320;11.864;2022-07-29T09:54:34;101693.48;;;30.20
69552;BMP280;58993;45.320;11.864;2022-07-29T09:57:08;101691.31;;;30.21
69552;BMP280;58993;45.320;11.864;2022-07-29T09:59:38;101693.85;;;30.23
69552;BMP280;58993;45.320;11.864;2022-07-29T10:02:14;101691.31;;;30.22
69552;BMP280;58993;45.320;11.864;2022-07-29T10:04:41;101691.22;;;30.24
69552;BMP280;58993;45.320;11.864;2022-07-29T10:07:08;101686.81;;;30.22
69552;BMP280;58993;45.320;11.864;2022-07-29T10:09:34;101681.16;;;30.24
69552;BMP280;58993;45.320;11.864;2022-07-29T10:12:11;101683.02;;;30.26
69552;BMP280;58993;45.320;11.864;2022-07-29T10:14:41;101679.27;;;30.26
69552;BMP280;58993;45.320;11.864;2022-07-29T10:17:09;101675.05;;;30.25
69552;BMP280;58993;45.320;11.864;2022-07-29T10:19:36;101673.05;;;30.26
69552;BMP280;58993;45.320;11.864;2022-07-29T10:22:05;101667.31;;;30.26
69552;BMP280;58993;45.320;11.864;2022-07-29T10:24:32;101660.67;;;30.27
69552;BMP280;58993;45.320;11.864;2022-07-29T10:27:00;101658.95;;;30.26
69552;BMP280;58993;45.320;11.864;2022-07-29T10:29:27;101652.97;;;30.26
69552;BMP280;58993;45.320;11.864;2022-07-29T10:43:09;101649.98;;;30.28
69552;BMP280;58993;45.320;11.864;2022-07-29T10:45:40;101649.23;;;30.27
69552;BMP280;58993;45.320;11.864;2022-07-29T10:48:06;101647.27;;;30.28
69552;BMP280;58993;45.320;11.864;2022-07-29T10:50:57;101642.05;;;30.28
69552;BMP280;58993;45.320;11.864;2022-07-29T10:53:45;101638.48;;;30.30
69552;BMP280;58993;45.320;11.864;2022-07-29T10:56:24;101636.68;;;30.31
69552;BMP280;58993;45.320;11.864;2022-07-29T11:01:47;101637.20;;;30.30
69552;BMP280;58993;45.320;11.864;2022-07-29T11:04:13;101636.47;;;30.33
69552;BMP280;58993;45.320;11.864;2022-07-29T11:07:11;101631.79;;;30.33
69552;BMP280;58993;45.320;11.864;2022-07-29T11:09:38;101627.89;;;30.33
69552;BMP280;58993;45.320;11.864;2022-07-29T11:15:01;101619.98;;;30.32
69552;BMP280;58993;45.320;11.864;2022-07-29T11:17:28;101614.80;;;30.31
69552;BMP280;58993;45.320;11.864;2022-07-29T11:20:33;101618.68;;;30.35
69552;BMP280;58993;45.320;11.864;2022-07-29T11:22:59;101616.77;;;30.33
69552;BMP280;58993;45.320;11.864;2022-07-29T11:25:25;101619.08;;;30.33
69552;BMP280;58993;45.320;11.864;2022-07-29T11:27:52;101617.48;;;30.40
69552;BMP280;58993;45.320;11.864;2022-07-29T11:30:19;101621.95;;;30.43
69552;BMP280;58993;45.320;11.864;2022-07-29T11:32:45;101617.13;;;30.45
69552;BMP280;58993;45.320;11.864;2022-07-29T11:35:21;101615.71;;;30.48
69552;BMP280;58993;45.320;11.864;2022-07-29T11:38:26;101616.89;;;30.49
69552;BMP280;58993;45.320;11.864;2022-07-29T11:43:46;101610.77;;;30.49
69552;BMP280;58993;45.320;11.864;2022-07-29T11:46:12;101606.31;;;30.49
69552;BMP280;58993;45.320;11.864;2022-07-29T11:48:42;101604.04;;;30.50
69552;BMP280;58993;45.320;11.864;2022-07-29T11:51:11;101600.42;;;30.50
69552;BMP280;58993;45.320;11.864;2022-07-29T11:53:38;101600.58;;;30.51
69552;BMP280;58993;45.320;11.864;2022-07-29T11:56:08;101599.98;;;30.50
69552;BMP280;58993;45.320;11.864;2022-07-29T11:58:34;101599.05;;;30.48
69552;BMP280;58993;45.320;11.864;2022-07-29T12:01:00;101593.85;;;30.47
69552;BMP280;58993;45.320;11.864;2022-07-29T12:03:27;101593.42;;;30.50
69552;BMP280;58993;45.320;11.864;2022-07-29T12:05:53;101591.55;;;30.52
69552;BMP280;58993;45.320;11.864;2022-07-29T12:08:21;101589.36;;;30.52
69552;BMP280;58993;45.320;11.864;2022-07-29T12:10:51;101591.86;;;30.50
69552;BMP280;58993;45.320;11.864;2022-07-29T12:13:18;101591.55;;;30.52
69552;BMP280;58993;45.320;11.864;2022-07-29T12:15:54;101594.70;;;30.52
69552;BMP280;58993;45.320;11.864;2022-07-29T12:18:21;101597.42;;;30.53
69552;BMP280;58993;45.320;11.864;2022-07-29T12:20:47;101599.14;;;30.53
69552;BMP280;58993;45.320;11.864;2022-07-29T12:23:14;101599.38;;;30.54
69552;BMP280;58993;45.320;11.864;2022-07-29T12:25:43;101597.48;;;30.54
69552;BMP280;58993;45.320;11.864;2022-07-29T12:28:12;101596.57;;;30.55
69552;BMP280;58993;45.320;11.864;2022-07-29T12:30:41;101596.16;;;30.56
69552;BMP280;58993;45.320;11.864;2022-07-29T12:33:12;101596.61;;;30.57
69552;BMP280;58993;45.320;11.864;2022-07-29T12:35:38;101589.13;;;30.60
69552;BMP280;58993;45.320;11.864;2022-07-29T12:38:05;101584.77;;;30.61
69552;BMP280;58993;45.320;11.864;2022-07-29T12:40:30;101584.08;;;30.68
69552;BMP280;58993;45.320;11.864;2022-07-29T12:45:31;101580.33;;;30.71
69552;BMP280;58993;45.320;11.864;2022-07-29T12:47:57;101573.77;;;30.71
69552;BMP280;58993;45.320;11.864;2022-07-29T12:50:22;101575.23;;;30.69
69552;BMP280;58993;45.320;11.864;2022-07-29T12:52:49;101576.17;;;30.67
69552;BMP280;58993;45.320;11.864;2022-07-29T12:55:15;101570.33;;;30.65
69552;BMP280;58993;45.320;11.864;2022-07-29T12:57:50;101567.05;;;30.68
69552;BMP280;58993;45.320;11.864;2022-07-29T13:00:22;101562.80;;;30.64
69552;BMP280;58993;45.320;11.864;2022-07-29T13:02:55;101562.80;;;30.64
69552;BMP280;58993;45.320;11.864;2022-07-29T13:05:21;101556.73;;;30.61
69552;BMP280;58993;45.320;11.864;2022-07-29T13:07:47;101554.17;;;30.62
69552;BMP280;58993;45.320;11.864;2022-07-29T13:10:20;101545.82;;;30.65
69552;BMP280;58993;45.320;11.864;2022-07-29T13:15:33;101533.20;;;30.68
69552;BMP280;58993;45.320;11.864;2022-07-29T13:17:59;101529.16;;;30.65
69552;BMP280;58993;45.320;11.864;2022-07-29T13:20:27;101528.73;;;30.67
69552;BMP280;58993;45.320;11.864;2022-07-29T13:22:56;101520.77;;;30.67
69552;BMP280;58993;45.320;11.864;2022-07-29T13:25:27;101516.34;;;30.72
69552;BMP280;58993;45.320;11.864;2022-07-29T13:27:53;101511.23;;;30.73
69552;BMP280;58993;45.320;11.864;2022-07-29T13:30:20;101510.77;;;30.75
69552;BMP280;58993;45.320;11.864;2022-07-29T13:32:47;101505.55;;;30.69
69552;BMP280;58993;45.320;11.864;2022-07-29T13:35:12;101501.87;;;30.66
69552;BMP280;58993;45.320;11.864;2022-07-29T13:37:39;101501.92;;;30.65
69552;BMP280;58993;45.320;11.864;2022-07-29T13:40:06;101499.36;;;30.66
69552;BMP280;58993;45.320;11.864;2022-07-29T13:42:32;101496.27;;;30.69
69552;BMP280;58993;45.320;11.864;2022-07-29T13:44:58;101488.02;;;30.70
69552;BMP280;58993;45.320;11.864;2022-07-29T13:47:25;101488.86;;;30.73
69552;BMP280;58993;45.320;11.864;2022-07-29T13:49:51;101483.45;;;30.75
69552;BMP280;58993;45.320;11.864;2022-07-29T13:52:16;101480.88;;;30.74
69552;BMP280;58993;45.320;11.864;2022-07-29T13:54:43;101477.35;;;30.75
69552;BMP280;58993;45.320;11.864;2022-07-29T13:57:09;101477.90;;;30.76
69552;BMP280;58993;45.320;11.864;2022-07-29T13:59:35;101475.48;;;30.76
69552;BMP280;58993;45.320;11.864;2022-07-29T14:02:01;101472.95;;;30.79
69552;BMP280;58993;45.320;11.864;2022-07-29T14:04:27;101468.38;;;30.76
69552;BMP280;58993;45.320;11.864;2022-07-29T14:06:52;101460.95;;;30.77
69552;BMP280;58993;45.320;11.864;2022-07-29T14:09:18;101453.64;;;30.76
69552;BMP280;58993;45.320;11.864;2022-07-29T14:11:44;101449.66;;;30.73
69552;BMP280;58993;45.320;11.864;2022-07-29T14:14:11;101452.02;;;30.72
69552;BMP280;58993;45.320;11.864;2022-07-29T14:16:36;101450.78;;;30.74
69552;BMP280;58993;45.320;11.864;2022-07-29T14:19:02;101446.83;;;30.73
69552;BMP280;58993;45.320;11.864;2022-07-29T14:21:28;101456.40;;;30.72
69552;BMP280;58993;45.320;11.864;2022-07-29T14:23:53;101461.77;;;30.69
69552;BMP280;58993;45.320;11.864;2022-07-29T14:26:20;101465.24;;;30.67
69552;BMP280;58993;45.320;11.864;2022-07-29T14:28:47;101468.33;;;30.68
69552;BMP280;58993;45.320;11.864;2022-07-29T14:31:12;101463.64;;;30.70
69552;BMP280;58993;45.320;11.864;2022-07-29T14:33:38;101462.23;;;30.70